Time;durP1;ratioP1;P1;durP2;ratioP2;P2;SDS_P1;SDS_P2;PMS_P1;PMS_P2;Temp;Humidity;BMP_temperature;BMP_pressure;BME280_temperature;BME280_humidity;BME280_pressure;Samples;Min_cycle;Max_cycle;Signal;HPM_P1;HPM_P2
2021/04/18 00:04:27;;;;;;;16.30;9.90;;;;;;;;;;10284231;28;20700;-68
2021/04/18 00:09:29;;;;;;;15.77;9.63;;;;;;;;;;10286218;28;20660;-68
2021/04/18 00:14:31;;;;;;;16.43;10.43;;;;;;;;;;10287082;28;20204;-69
2021/04/18 00:19:34;;;;;;;15.97;10.27;;;;;;;;;;10282496;28;20734;-69
2021/04/18 00:24:37;;;;;;;13.87;9.37;;;;;;;;;;10275929;28;20274;-69
2021/04/18 00:29:39;;;;;;;17.60;11.00;;;;;;;;;;10285703;28;20295;-69
2021/04/18 00:34:40;;;;;;;15.37;10.27;;;;;;;;;;10283660;28;20188;-69
2021/04/18 00:39:45;;;;;;;15.63;11.00;;;;;;;;;;10286679;28;20219;-68
2021/04/18 00:44:48;;;;;;;15.03;9.93;;;;;;;;;;10285781;28;20287;-68
2021/04/18 00:49:49;;;;;;;16.17;10.50;;;;;;;;;;10285595;28;20227;-69
2021/04/18 00:54:52;;;;;;;16.43;10.70;;;;;;;;;;10277331;28;20274;-69
2021/04/18 00:59:54;;;;;;;17.27;11.80;;;;;;;;;;10286533;28;20258;-69
2021/04/18 01:04:55;;;;;;;15.93;10.40;;;;;;;;;;10277054;28;20202;-68
2021/04/18 01:09:58;;;;;;;16.07;10.77;;;;;;;;;;10291827;28;20262;-69
2021/04/18 01:14:59;;;;;;;15.90;10.57;;;;;;;;;;10291212;28;20223;-67
2021/04/18 01:20:01;;;;;;;16.33;11.10;;;;;;;;;;10288322;28;20202;-68
2021/04/18 01:25:06;;;;;;;17.73;11.50;;;;;;;;;;10285748;28;20188;-68
2021/04/18 01:30:08;;;;;;;17.17;11.33;;;;;;;;;;10285388;28;20285;-69
2021/04/18 01:35:10;;;;;;;19.00;12.17;;;;;;;;;;10282001;28;20210;-69
2021/04/18 01:40:14;;;;;;;17.20;11.30;;;;;;;;;;10274912;28;20270;-68
2021/04/18 01:45:17;;;;;;;17.40;11.60;;;;;;;;;;10281957;28;20256;-69
2021/04/18 01:50:19;;;;;;;16.67;11.20;;;;;;;;;;10285068;28;20323;-70
2021/04/18 01:55:21;;;;;;;17.07;11.67;;;;;;;;;;10284839;28;20196;-68
2021/04/18 02:00:23;;;;;;;18.40;11.80;;;;;;;;;;10282852;28;20231;-69
2021/04/18 02:05:25;;;;;;;19.10;11.90;;;;;;;;;;10282257;28;20200;-69
2021/04/18 02:10:28;;;;;;;18.00;11.73;;;;;;;;;;10279152;28;20227;-69
2021/04/18 02:15:29;;;;;;;17.73;12.20;;;;;;;;;;10285398;28;20209;-69
2021/04/18 02:20:31;;;;;;;19.07;12.17;;;;;;;;;;10281576;28;20207;-69
2021/04/18 02:25:33;;;;;;;19.43;12.70;;;;;;;;;;10284117;28;20204;-68
2021/04/18 02:30:35;;;;;;;20.20;12.40;;;;;;;;;;10284483;28;20227;-68
2021/04/18 02:35:37;;;;;;;17.70;11.73;;;;;;;;;;10278020;28;20198;-69
2021/04/18 02:40:39;;;;;;;19.57;12.63;;;;;;;;;;10287509;28;20262;-69
2021/04/18 02:45:41;;;;;;;17.77;11.73;;;;;;;;;;10282019;28;20316;-68
2021/04/18 02:50:42;;;;;;;19.53;12.47;;;;;;;;;;10281303;28;20357;-68
2021/04/18 02:55:45;;;;;;;19.67;12.53;;;;;;;;;;10275253;28;20203;-69
2021/04/18 03:00:47;;;;;;;17.10;11.53;;;;;;;;;;10273580;28;20656;-70
2021/04/18 03:05:48;;;;;;;19.20;12.17;;;;;;;;;;10278216;28;20266;-67
2021/04/18 03:10:51;;;;;;;19.63;12.77;;;;;;;;;;10283912;28;20223;-67
2021/04/18 03:15:53;;;;;;;18.87;12.27;;;;;;;;;;10288766;28;20192;-70
2021/04/18 03:20:54;;;;;;;18.37;12.47;;;;;;;;;;10293963;28;20289;-68
2021/04/18 03:25:57;;;;;;;19.37;12.87;;;;;;;;;;10292324;28;20203;-69
2021/04/18 03:30:58;;;;;;;20.60;13.50;;;;;;;;;;10293575;28;20214;-68
2021/04/18 03:36:00;;;;;;;19.13;12.73;;;;;;;;;;10292185;28;20581;-69
2021/04/18 03:41:03;;;;;;;19.37;13.07;;;;;;;;;;10295060;28;20219;-68
2021/04/18 03:46:04;;;;;;;19.43;12.77;;;;;;;;;;10300040;28;20192;-69
2021/04/18 03:51:06;;;;;;;21.40;14.10;;;;;;;;;;10286669;28;20242;-68
2021/04/18 03:56:08;;;;;;;20.73;12.90;;;;;;;;;;10292732;28;20265;-70
2021/04/18 04:01:11;;;;;;;20.53;13.63;;;;;;;;;;10299513;28;20679;-69
2021/04/18 04:06:13;;;;;;;21.23;13.67;;;;;;;;;;10287515;28;20643;-69
2021/04/18 04:11:16;;;;;;;19.80;13.40;;;;;;;;;;10283760;28;20311;-71
2021/04/18 04:16:17;;;;;;;21.33;14.20;;;;;;;;;;10290562;28;20199;-69
2021/04/18 04:21:19;;;;;;;21.33;14.13;;;;;;;;;;10284915;28;20302;-70
2021/04/18 04:26:21;;;;;;;21.70;14.50;;;;;;;;;;10293886;28;20579;-68
2021/04/18 04:31:23;;;;;;;21.47;14.33;;;;;;;;;;10287132;28;20323;-68
2021/04/18 04:36:25;;;;;;;22.20;13.43;;;;;;;;;;10296461;28;20200;-69
2021/04/18 04:41:28;;;;;;;21.87;14.27;;;;;;;;;;10288459;28;20699;-70
2021/04/18 04:46:30;;;;;;;21.90;14.23;;;;;;;;;;10287306;28;20196;-69
2021/04/18 04:51:31;;;;;;;21.30;14.23;;;;;;;;;;10286150;28;20228;-69
2021/04/18 04:56:34;;;;;;;22.17;13.73;;;;;;;;;;10291435;28;20274;-72
2021/04/18 05:01:36;;;;;;;22.27;14.37;;;;;;;;;;10286953;28;20211;-68
2021/04/18 05:06:37;;;;;;;23.37;14.73;;;;;;;;;;10286301;28;20195;-68
2021/04/18 05:11:40;;;;;;;21.70;14.50;;;;;;;;;;10284881;28;20314;-69
2021/04/18 05:16:41;;;;;;;19.67;13.17;;;;;;;;;;10295238;28;20540;-70
2021/04/18 05:21:43;;;;;;;21.53;13.73;;;;;;;;;;10296230;28;20235;-68
2021/04/18 05:26:45;;;;;;;23.33;14.33;;;;;;;;;;10284148;28;20187;-68
2021/04/18 05:31:47;;;;;;;22.30;13.87;;;;;;;;;;10283965;28;20700;-68
2021/04/18 05:36:49;;;;;;;21.50;13.73;;;;;;;;;;10291725;28;20200;-68
2021/04/18 05:41:51;;;;;;;20.17;13.17;;;;;;;;;;10290462;28;20212;-67
2021/04/18 05:46:53;;;;;;;19.50;13.47;;;;;;;;;;10285411;28;20679;-69
2021/04/18 05:51:55;;;;;;;19.90;12.83;;;;;;;;;;10279656;28;20250;-68
2021/04/18 05:56:57;;;;;;;19.70;12.63;;;;;;;;;;10290586;28;20563;-70
2021/04/18 06:01:59;;;;;;;19.47;12.93;;;;;;;;;;10290336;28;20211;-70
2021/04/18 06:07:01;;;;;;;17.80;11.97;;;;;;;;;;10287161;28;20214;-69
2021/04/18 06:12:04;;;;;;;18.73;12.13;;;;;;;;;;10283122;28;20350;-69
2021/04/18 06:17:06;;;;;;;19.77;11.73;;;;;;;;;;10286758;28;20214;-69
2021/04/18 06:22:07;;;;;;;19.03;12.47;;;;;;;;;;10281163;28;20604;-68
2021/04/18 06:27:10;;;;;;;20.83;12.77;;;;;;;;;;10280741;28;20314;-69
2021/04/18 06:32:12;;;;;;;19.47;12.40;;;;;;;;;;10279784;28;20494;-68
2021/04/18 06:37:21;;;;;;;18.33;12.50;;;;;;;;;;10281200;28;20223;-69
2021/04/18 06:42:24;;;;;;;18.20;12.07;;;;;;;;;;10279007;28;20508;-68
2021/04/18 06:47:26;;;;;;;18.77;11.77;;;;;;;;;;10283987;28;20196;-69
2021/04/18 06:52:28;;;;;;;19.27;13.30;;;;;;;;;;10282317;28;20596;-69
2021/04/18 06:57:30;;;;;;;19.27;12.70;;;;;;;;;;10287065;28;20282;-69
2021/04/18 07:02:33;;;;;;;19.97;13.20;;;;;;;;;;10282370;28;20216;-67
2021/04/18 07:07:35;;;;;;;18.43;12.53;;;;;;;;;;10280457;28;20608;-69
2021/04/18 07:12:38;;;;;;;19.87;12.87;;;;;;;;;;10289350;28;20648;-68
2021/04/18 07:17:46;;;;;;;18.80;12.73;;;;;;;;;;10289578;28;20195;-70
2021/04/18 07:22:48;;;;;;;19.67;13.03;;;;;;;;;;10289234;28;20223;-70
2021/04/18 07:27:50;;;;;;;18.70;12.87;;;;;;;;;;10282914;28;20250;-70
2021/04/18 07:33:02;;;;;;;18.03;11.60;;;;;;;;;;10272543;28;547793;-70
2021/04/18 07:38:17;;;;;;;17.70;12.20;;;;;;;;;;10288985;28;20671;-69
2021/04/18 07:43:20;;;;;;;17.80;12.27;;;;;;;;;;10290464;28;20200;-69
2021/04/18 07:48:21;;;;;;;18.10;12.23;;;;;;;;;;10287828;28;20220;-69
2021/04/18 07:53:23;;;;;;;18.23;12.40;;;;;;;;;;10282455;28;20258;-67
2021/04/18 07:58:26;;;;;;;18.27;12.90;;;;;;;;;;10293193;28;20301;-69
2021/04/18 08:03:28;;;;;;;18.27;12.53;;;;;;;;;;10289418;28;20673;-68
2021/04/18 08:08:42;;;;;;;17.03;12.10;;;;;;;;;;10282829;28;20218;-69
2021/04/18 08:13:47;;;;;;;18.70;12.33;;;;;;;;;;10283564;28;20204;-68
2021/04/18 08:18:49;;;;;;;17.70;12.70;;;;;;;;;;10278277;28;20287;-68
2021/04/18 08:23:54;;;;;;;19.30;13.67;;;;;;;;;;10282745;28;20185;-69
2021/04/18 08:29:09;;;;;;;20.90;14.50;;;;;;;;;;10274030;28;20247;-67
2021/04/18 08:34:17;;;;;;;22.50;15.47;;;;;;;;;;10286668;28;20706;-66
2021/04/18 08:39:20;;;;;;;21.60;14.70;;;;;;;;;;10284224;28;20234;-67
2021/04/18 08:44:24;;;;;;;19.53;14.10;;;;;;;;;;10276393;28;20197;-67
2021/04/18 08:49:28;;;;;;;20.83;14.50;;;;;;;;;;10279620;28;20260;-67
2021/04/18 08:54:30;;;;;;;18.80;13.40;;;;;;;;;;10279704;28;20191;-66
2021/04/18 08:59:33;;;;;;;21.80;15.10;;;;;;;;;;10281063;28;20740;-68
2021/04/18 09:04:36;;;;;;;21.37;14.80;;;;;;;;;;10283968;28;20211;-66
2021/04/18 09:09:37;;;;;;;20.70;15.13;;;;;;;;;;10286604;28;20307;-66
2021/04/18 09:14:42;;;;;;;19.77;14.63;;;;;;;;;;10291615;28;20283;-66
2021/04/18 09:19:48;;;;;;;21.50;15.40;;;;;;;;;;10286579;28;20223;-66
2021/04/18 09:24:54;;;;;;;24.63;16.37;;;;;;;;;;10288139;28;20307;-68
2021/04/18 09:29:58;;;;;;;22.57;16.10;;;;;;;;;;10288316;28;20231;-67
2021/04/18 09:35:01;;;;;;;21.87;16.13;;;;;;;;;;10286694;28;20287;-67
2021/04/18 09:40:03;;;;;;;23.37;16.97;;;;;;;;;;10282816;28;20213;-66
2021/04/18 09:45:08;;;;;;;25.10;18.27;;;;;;;;;;10282952;28;20192;-67
2021/04/18 09:50:15;;;;;;;27.33;19.73;;;;;;;;;;10281493;28;20596;-67
2021/04/18 09:55:18;;;;;;;26.53;18.30;;;;;;;;;;10282320;28;20288;-67
2021/04/18 10:00:22;;;;;;;24.90;16.93;;;;;;;;;;10282320;28;20212;-67
2021/04/18 10:05:23;;;;;;;22.90;15.20;;;;;;;;;;10287842;28;20616;-66
2021/04/18 10:10:30;;;;;;;21.23;14.63;;;;;;;;;;10281612;28;20278;-67
2021/04/18 10:15:33;;;;;;;21.00;15.10;;;;;;;;;;10286197;28;20270;-68
2021/04/18 10:20:36;;;;;;;20.27;14.43;;;;;;;;;;10282191;28;20224;-68
2021/04/18 10:25:39;;;;;;;20.33;14.83;;;;;;;;;;10287142;28;20314;-66
2021/04/18 10:30:42;;;;;;;18.80;14.47;;;;;;;;;;10283590;28;20317;-67
2021/04/18 10:35:44;;;;;;;18.77;14.30;;;;;;;;;;10281059;28;20196;-66
2021/04/18 10:40:45;;;;;;;17.47;13.43;;;;;;;;;;10283939;28;20215;-66
2021/04/18 10:45:47;;;;;;;17.37;13.23;;;;;;;;;;10276219;28;20210;-66
2021/04/18 10:50:49;;;;;;;17.80;12.87;;;;;;;;;;10283686;28;20623;-65
2021/04/18 10:55:51;;;;;;;19.80;14.57;;;;;;;;;;10279753;28;20276;-67
2021/04/18 11:00:53;;;;;;;19.37;14.37;;;;;;;;;;10270904;28;20216;-66
2021/04/18 11:05:55;;;;;;;19.00;13.60;;;;;;;;;;10274157;28;20636;-68
2021/04/18 11:10:56;;;;;;;18.07;13.43;;;;;;;;;;10285572;28;20575;-68
2021/04/18 11:15:59;;;;;;;18.23;13.83;;;;;;;;;;10286792;28;20685;-68
2021/04/18 11:21:01;;;;;;;19.13;13.77;;;;;;;;;;10282217;28;20278;-68
2021/04/18 11:26:03;;;;;;;17.43;13.37;;;;;;;;;;10286296;28;20218;-68
2021/04/18 11:31:05;;;;;;;18.57;13.43;;;;;;;;;;10289704;28;20226;-68
2021/04/18 11:36:07;;;;;;;23.57;15.73;;;;;;;;;;10285892;28;20555;-67
2021/04/18 11:41:09;;;;;;;16.63;12.37;;;;;;;;;;10281782;28;20219;-68
2021/04/18 11:46:11;;;;;;;15.77;11.27;;;;;;;;;;10278473;28;20226;-68
2021/04/18 11:51:13;;;;;;;14.63;11.23;;;;;;;;;;10285211;28;20257;-67
2021/04/18 11:56:14;;;;;;;16.27;11.70;;;;;;;;;;10281878;28;20238;-68
2021/04/18 12:01:17;;;;;;;15.20;11.67;;;;;;;;;;10290660;28;20258;-69
2021/04/18 12:06:18;;;;;;;13.37;10.43;;;;;;;;;;10289472;28;20204;-69
2021/04/18 12:11:20;;;;;;;13.93;10.67;;;;;;;;;;10290461;28;20246;-69
2021/04/18 12:16:22;;;;;;;14.57;10.30;;;;;;;;;;10289785;28;20196;-70
2021/04/18 12:21:24;;;;;;;14.80;11.17;;;;;;;;;;10280167;28;20294;-68
2021/04/18 12:26:26;;;;;;;18.10;11.10;;;;;;;;;;10280883;28;20215;-69
2021/04/18 12:31:28;;;;;;;14.43;10.60;;;;;;;;;;10283824;28;20599;-70
2021/04/18 12:36:30;;;;;;;13.80;9.67;;;;;;;;;;10286286;28;20195;-70
2021/04/18 12:41:32;;;;;;;15.27;10.60;;;;;;;;;;10289988;28;20211;-69
2021/04/18 12:46:37;;;;;;;15.47;10.40;;;;;;;;;;10288211;28;20195;-67
2021/04/18 12:51:40;;;;;;;15.50;10.40;;;;;;;;;;10290601;28;20236;-69
2021/04/18 12:56:41;;;;;;;14.43;10.70;;;;;;;;;;10286411;28;20708;-69
2021/04/18 13:01:44;;;;;;;15.27;10.13;;;;;;;;;;10290247;28;20214;-68
2021/04/18 13:06:45;;;;;;;15.90;10.10;;;;;;;;;;10286951;28;20222;-67
2021/04/18 13:11:47;;;;;;;13.40;9.80;;;;;;;;;;10280545;28;20564;-68
2021/04/18 13:16:49;;;;;;;16.57;11.57;;;;;;;;;;10293731;28;20326;-67
2021/04/18 13:21:52;;;;;;;16.53;11.17;;;;;;;;;;10283443;28;20615;-67
2021/04/18 13:26:53;;;;;;;16.53;11.07;;;;;;;;;;10281036;28;20262;-66
2021/04/18 13:31:56;;;;;;;17.57;11.80;;;;;;;;;;10290112;28;20223;-68
2021/04/18 13:36:58;;;;;;;16.90;12.07;;;;;;;;;;10284841;28;20267;-67
2021/04/18 13:41:59;;;;;;;16.77;12.00;;;;;;;;;;10284102;28;20243;-68
2021/04/18 13:47:01;;;;;;;16.57;11.73;;;;;;;;;;10284724;28;20523;-68
2021/04/18 13:52:04;;;;;;;17.73;12.10;;;;;;;;;;10285699;28;20212;-68
2021/04/18 13:57:06;;;;;;;16.40;11.47;;;;;;;;;;10283949;28;20239;-68
2021/04/18 14:02:08;;;;;;;17.90;12.60;;;;;;;;;;10284819;28;20215;-67
2021/04/18 14:07:10;;;;;;;18.43;12.63;;;;;;;;;;10281227;28;20200;-66
2021/04/18 14:12:12;;;;;;;17.30;11.67;;;;;;;;;;10283797;28;20231;-67
2021/04/18 14:17:16;;;;;;;17.87;12.50;;;;;;;;;;10291183;28;20200;-67
2021/04/18 14:22:18;;;;;;;17.60;11.53;;;;;;;;;;10286309;28;20282;-68
2021/04/18 14:27:19;;;;;;;16.67;11.27;;;;;;;;;;10293280;28;21221;-68
2021/04/18 14:32:22;;;;;;;17.00;10.97;;;;;;;;;;10285668;28;20627;-68
2021/04/18 14:37:26;;;;;;;17.63;11.27;;;;;;;;;;10291651;28;20206;-69
2021/04/18 14:42:28;;;;;;;17.77;12.27;;;;;;;;;;10288537;28;20210;-68
2021/04/18 14:47:30;;;;;;;17.57;11.40;;;;;;;;;;10284314;28;20191;-67
2021/04/18 14:52:32;;;;;;;18.23;12.40;;;;;;;;;;10281414;28;20696;-68
2021/04/18 14:57:34;;;;;;;18.97;12.63;;;;;;;;;;10287077;28;20219;-67
2021/04/18 15:02:36;;;;;;;17.87;12.10;;;;;;;;;;10282441;28;20215;-67
2021/04/18 15:07:38;;;;;;;17.37;11.33;;;;;;;;;;10277460;28;20442;-67
2021/04/18 15:12:40;;;;;;;18.00;11.53;;;;;;;;;;10279332;28;20587;-68
2021/04/18 15:17:43;;;;;;;18.50;11.97;;;;;;;;;;10286320;28;20223;-67
2021/04/18 15:22:45;;;;;;;17.37;11.67;;;;;;;;;;10286101;28;20659;-68
2021/04/18 15:27:46;;;;;;;20.50;12.87;;;;;;;;;;10276367;28;20220;-67
2021/04/18 15:32:49;;;;;;;18.60;12.33;;;;;;;;;;10291644;28;20306;-67
2021/04/18 15:37:52;;;;;;;19.33;12.03;;;;;;;;;;10289392;28;20338;-67
2021/04/18 15:42:53;;;;;;;16.73;11.43;;;;;;;;;;10288239;28;20547;-69
2021/04/18 15:47:56;;;;;;;18.77;11.87;;;;;;;;;;10294936;28;20191;-67
2021/04/18 15:52:58;;;;;;;18.17;12.10;;;;;;;;;;10294004;28;20218;-68
2021/04/18 15:57:59;;;;;;;20.47;13.20;;;;;;;;;;10298600;28;20199;-66
2021/04/18 16:03:02;;;;;;;30.63;22.13;;;;;;;;;;10291401;28;20305;-67
2021/04/18 16:08:05;;;;;;;19.97;13.13;;;;;;;;;;10287483;28;20272;-69
2021/04/18 16:13:07;;;;;;;30.40;15.97;;;;;;;;;;10286007;28;20211;-68
2021/04/18 16:18:10;;;;;;;16.80;12.07;;;;;;;;;;10282110;28;20223;-68
2021/04/18 16:23:12;;;;;;;19.63;12.67;;;;;;;;;;10279281;28;20195;-68
2021/04/18 16:28:13;;;;;;;22.70;13.13;;;;;;;;;;10280061;28;20567;-68
2021/04/18 16:33:16;;;;;;;17.13;12.00;;;;;;;;;;10281161;28;20598;-68
2021/04/18 16:38:18;;;;;;;19.53;12.70;;;;;;;;;;10280030;28;20196;-65
2021/04/18 16:43:19;;;;;;;18.60;11.50;;;;;;;;;;10284168;28;20683;-66
2021/04/18 16:48:28;;;;;;;18.73;11.83;;;;;;;;;;10278684;28;20219;-66
2021/04/18 16:53:30;;;;;;;16.80;11.70;;;;;;;;;;10277959;28;20750;-67
2021/04/18 16:58:31;;;;;;;16.67;11.20;;;;;;;;;;10281837;28;20223;-67
2021/04/18 17:03:34;;;;;;;18.47;12.33;;;;;;;;;;10276863;28;20250;-68
2021/04/18 17:08:39;;;;;;;17.10;10.37;;;;;;;;;;10284758;28;20662;-68
2021/04/18 17:13:43;;;;;;;19.13;12.33;;;;;;;;;;10267653;28;20223;-67
2021/04/18 17:18:45;;;;;;;18.43;12.17;;;;;;;;;;10273297;28;20212;-67
2021/04/18 17:23:48;;;;;;;18.93;12.40;;;;;;;;;;10265438;28;20258;-67
2021/04/18 17:28:51;;;;;;;18.40;12.30;;;;;;;;;;10263081;28;20239;-69
2021/04/18 17:33:53;;;;;;;19.43;12.70;;;;;;;;;;10253774;28;20223;-68
2021/04/18 17:38:57;;;;;;;18.90;13.00;;;;;;;;;;10271795;28;20211;-67
2021/04/18 17:44:02;;;;;;;19.77;12.83;;;;;;;;;;10270505;28;20333;-70
2021/04/18 17:49:04;;;;;;;21.03;13.53;;;;;;;;;;10264946;28;20351;-70
2021/04/18 17:54:06;;;;;;;21.73;14.37;;;;;;;;;;10277630;28;20212;-70
2021/04/18 17:59:07;;;;;;;20.67;12.83;;;;;;;;;;10282563;28;20621;-67
2021/04/18 18:04:10;;;;;;;19.53;12.87;;;;;;;;;;10285263;28;20223;-69
2021/04/18 18:09:12;;;;;;;22.13;12.90;;;;;;;;;;10282607;28;20219;-68
2021/04/18 18:14:14;;;;;;;20.87;13.07;;;;;;;;;;10284890;28;20223;-69
2021/04/18 18:19:16;;;;;;;21.90;13.20;;;;;;;;;;10274554;28;20230;-69
2021/04/18 18:24:18;;;;;;;23.63;14.07;;;;;;;;;;10285533;28;20263;-69
2021/04/18 18:29:20;;;;;;;21.83;13.17;;;;;;;;;;10281057;28;20631;-68
2021/04/18 18:34:22;;;;;;;21.97;13.57;;;;;;;;;;10263751;28;20215;-69
2021/04/18 18:39:24;;;;;;;21.27;13.17;;;;;;;;;;10283189;28;20627;-69
2021/04/18 18:44:25;;;;;;;23.97;14.50;;;;;;;;;;10277763;28;20200;-69
2021/04/18 18:49:28;;;;;;;21.97;13.13;;;;;;;;;;10277955;28;20216;-67
2021/04/18 18:54:30;;;;;;;22.27;13.23;;;;;;;;;;10278701;28;20219;-70
2021/04/18 18:59:32;;;;;;;22.70;13.93;;;;;;;;;;10280504;28;20290;-67
2021/04/18 19:04:35;;;;;;;22.20;13.13;;;;;;;;;;10282645;28;20323;-68
2021/04/18 19:09:36;;;;;;;21.97;13.10;;;;;;;;;;10289485;28;20307;-68
2021/04/18 19:14:41;;;;;;;23.53;14.27;;;;;;;;;;10288436;28;20216;-67
2021/04/18 19:19:43;;;;;;;23.07;14.20;;;;;;;;;;10284427;28;20245;-68
2021/04/18 19:24:45;;;;;;;23.23;13.83;;;;;;;;;;10282410;28;20242;-68
2021/04/18 19:29:47;;;;;;;23.50;13.73;;;;;;;;;;10282991;28;20223;-67
2021/04/18 19:34:49;;;;;;;23.00;13.27;;;;;;;;;;10278961;28;20303;-68
2021/04/18 19:39:51;;;;;;;20.50;12.47;;;;;;;;;;10280026;28;20278;-67
2021/04/18 19:44:52;;;;;;;22.03;13.43;;;;;;;;;;10277477;28;20255;-67
2021/04/18 19:49:55;;;;;;;21.70;13.83;;;;;;;;;;10279211;28;20715;-67
2021/04/18 19:54:56;;;;;;;23.50;14.13;;;;;;;;;;10278208;28;20302;-67
2021/04/18 19:59:58;;;;;;;23.67;13.23;;;;;;;;;;10278880;28;20274;-66
2021/04/18 20:05:01;;;;;;;23.17;14.43;;;;;;;;;;10272502;28;20668;-67
2021/04/18 20:10:04;;;;;;;21.97;13.37;;;;;;;;;;10260460;28;20342;-70
2021/04/18 20:15:06;;;;;;;21.03;13.33;;;;;;;;;;10264149;28;20678;-68
2021/04/18 20:20:10;;;;;;;20.00;12.13;;;;;;;;;;10267908;28;20234;-69
2021/04/18 20:25:13;;;;;;;22.90;13.37;;;;;;;;;;10275444;28;20235;-68
2021/04/18 20:30:16;;;;;;;22.10;12.77;;;;;;;;;;10274037;28;20251;-69
2021/04/18 20:35:18;;;;;;;24.20;13.47;;;;;;;;;;10277649;28;20199;-67
2021/04/18 20:40:20;;;;;;;22.07;13.00;;;;;;;;;;10279122;28;20227;-67
2021/04/18 20:45:21;;;;;;;21.47;12.87;;;;;;;;;;10275477;28;20188;-68
2021/04/18 20:50:24;;;;;;;21.13;13.10;;;;;;;;;;10277835;28;20220;-66
2021/04/18 20:55:26;;;;;;;22.47;13.73;;;;;;;;;;10278059;28;20318;-68
2021/04/18 21:00:30;;;;;;;22.67;14.00;;;;;;;;;;10283835;28;20315;-68
2021/04/18 21:05:32;;;;;;;22.77;13.73;;;;;;;;;;10278472;28;20202;-68
2021/04/18 21:10:34;;;;;;;21.50;13.07;;;;;;;;;;10286841;28;20216;-67
2021/04/18 21:15:35;;;;;;;21.83;13.50;;;;;;;;;;10281415;28;20270;-67
2021/04/18 21:20:40;;;;;;;23.37;12.73;;;;;;;;;;10287631;28;20279;-68
2021/04/18 21:25:41;;;;;;;24.57;13.87;;;;;;;;;;10283317;28;20184;-67
2021/04/18 21:30:43;;;;;;;22.83;13.10;;;;;;;;;;10281848;28;20227;-66
2021/04/18 21:35:46;;;;;;;22.53;13.93;;;;;;;;;;10281956;28;20204;-67
2021/04/18 21:40:48;;;;;;;25.27;14.00;;;;;;;;;;10278546;28;20220;-67
2021/04/18 21:45:49;;;;;;;23.53;13.53;;;;;;;;;;10285372;28;20598;-69
2021/04/18 21:50:52;;;;;;;23.80;14.00;;;;;;;;;;10275724;28;20360;-70
2021/04/18 21:55:54;;;;;;;25.20;14.53;;;;;;;;;;10283440;28;20699;-68
2021/04/18 22:00:56;;;;;;;23.37;13.03;;;;;;;;;;10281483;28;20303;-66
2021/04/18 22:05:58;;;;;;;24.47;14.27;;;;;;;;;;10277129;28;20198;-67
2021/04/18 22:11:20;;;;;;;24.87;14.40;;;;;;;;;;10281332;28;20306;-68
2021/04/18 22:16:21;;;;;;;26.50;15.67;;;;;;;;;;10277703;28;20191;-68
2021/04/18 22:21:24;;;;;;;26.03;15.53;;;;;;;;;;10284399;28;20365;-67
2021/04/18 22:26:26;;;;;;;24.93;15.10;;;;;;;;;;10281546;28;20636;-66
2021/04/18 22:31:27;;;;;;;27.60;14.90;;;;;;;;;;10284920;28;20242;-66
2021/04/18 22:36:30;;;;;;;25.70;14.70;;;;;;;;;;10278063;28;20245;-67
2021/04/18 22:41:32;;;;;;;29.17;15.83;;;;;;;;;;10282120;28;20216;-68
2021/04/18 22:46:34;;;;;;;27.73;16.03;;;;;;;;;;10280056;28;20338;-69
2021/04/18 22:51:36;;;;;;;27.47;15.30;;;;;;;;;;10269831;28;20710;-67
2021/04/18 22:56:38;;;;;;;26.60;15.43;;;;;;;;;;10281207;28;20191;-67
2021/04/18 23:01:40;;;;;;;25.80;14.40;;;;;;;;;;10277463;28;20410;-67
2021/04/18 23:06:43;;;;;;;24.40;14.33;;;;;;;;;;10282351;28;20191;-66
2021/04/18 23:11:44;;;;;;;23.30;13.80;;;;;;;;;;10280270;28;20212;-68
2021/04/18 23:16:46;;;;;;;23.67;13.47;;;;;;;;;;10281394;28;20275;-68
2021/04/18 23:21:49;;;;;;;24.67;13.13;;;;;;;;;;10278216;28;20239;-66
2021/04/18 23:26:51;;;;;;;22.70;14.13;;;;;;;;;;10275871;28;20791;-67
2021/04/18 23:31:52;;;;;;;22.07;13.03;;;;;;;;;;10280057;28;20219;-67
2021/04/18 23:36:55;;;;;;;23.47;14.10;;;;;;;;;;10280774;28;20284;-67
2021/04/18 23:41:56;;;;;;;23.83;12.97;;;;;;;;;;10283172;28;20246;-66
2021/04/18 23:46:58;;;;;;;21.97;13.07;;;;;;;;;;10280515;28;20200;-67
2021/04/18 23:52:01;;;;;;;18.77;9.90;;;;;;;;;;10283323;28;20700;-68
2021/04/18 23:57:03;;;;;;;22.17;12.70;;;;;;;;;;10286963;28;20200;-68
